Time;durP1;ratioP1;P1;durP2;ratioP2;P2;SDS_P1;SDS_P2;PMS_P1;PMS_P2;Temp;Humidity;BMP_temperature;BMP_pressure;BME280_temperature;BME280_humidity;BME280_pressure;Samples;Min_cycle;Max_cycle;Signal;HPM_P1;HPM_P2
2022/03/10 00:01:42;;;;;;;;;;;;;;;11.47;100.00;98871.94;5032845;28;19925;-79
2022/03/10 00:04:10;;;;;;;;;;;;;;;11.44;100.00;98883.97;5032590;28;20285;-79
2022/03/10 00:06:37;;;;;;;;;;;;;;;11.33;100.00;98875.03;5033700;28;19929;-78
2022/03/10 00:09:04;;;;;;;;;;;;;;;10.16;100.00;98892.50;5033881;28;20020;-78
2022/03/10 00:11:31;;;;;;;;;;;;;;;10.85;100.00;98886.03;5033655;28;19925;-79
2022/03/10 00:13:58;;;;;;;;;;;;;;;11.29;100.00;98890.31;5033798;28;19929;-79
2022/03/10 00:16:25;;;;;;;;;;;;;;;11.41;100.00;98884.84;5031964;28;20025;-79
2022/03/10 00:18:52;;;;;;;;;;;;;;;10.80;100.00;98884.53;5052433;28;19924;-79
2022/03/10 00:21:20;;;;;;;;;;;;;;;10.93;100.00;98887.47;5052129;28;19932;-78
2022/03/10 00:23:47;;;;;;;;;;;;;;;11.10;100.00;98883.53;5053564;28;19924;-79
2022/03/10 00:26:15;;;;;;;;;;;;;;;10.80;100.00;98875.34;5053619;28;20265;-78
2022/03/10 00:28:44;;;;;;;;;;;;;;;11.27;100.00;98878.78;5052227;28;19925;-79
2022/03/10 00:31:11;;;;;;;;;;;;;;;10.78;100.00;98884.16;5053476;28;20541;-78
2022/03/10 00:33:38;;;;;;;;;;;;;;;10.90;100.00;98885.56;5053472;28;19933;-78
2022/03/10 00:36:06;;;;;;;;;;;;;;;10.79;100.00;98896.13;5046299;28;19932;-79
2022/03/10 00:38:34;;;;;;;;;;;;;;;11.27;100.00;98885.16;5032580;28;19932;-78
2022/03/10 00:41:01;;;;;;;;;;;;;;;11.14;100.00;98897.44;5015663;28;20270;-79
2022/03/10 00:43:29;;;;;;;;;;;;;;;11.10;100.00;98903.13;5033467;28;19961;-79
2022/03/10 00:45:56;;;;;;;;;;;;;;;10.90;100.00;98894.69;4999599;28;19925;-78
2022/03/10 00:48:23;;;;;;;;;;;;;;;11.53;100.00;98892.56;5033383;28;19948;-79
2022/03/10 00:50:50;;;;;;;;;;;;;;;11.12;100.00;98892.25;5015326;28;19941;-79
2022/03/10 00:53:17;;;;;;;;;;;;;;;11.37;100.00;98892.53;5015764;28;19956;-79
2022/03/10 00:55:44;;;;;;;;;;;;;;;11.54;100.00;98899.72;5033464;28;19925;-78
2022/03/10 00:58:11;;;;;;;;;;;;;;;11.27;100.00;98885.16;5017156;28;19932;-79
2022/03/10 01:00:39;;;;;;;;;;;;;;;11.10;100.00;98869.56;5036619;28;20002;-79
2022/03/10 01:03:09;;;;;;;;;;;;;;;11.19;100.00;98894.94;5036585;28;19929;-79
2022/03/10 01:05:36;;;;;;;;;;;;;;;11.06;100.00;98896.03;5036795;28;19965;-79
2022/03/10 01:08:03;;;;;;;;;;;;;;;10.67;100.00;98882.81;5034086;28;19925;-79
2022/03/10 01:10:32;;;;;;;;;;;;;;;10.97;100.00;98902.16;5036568;28;19939;-79
2022/03/10 01:12:59;;;;;;;;;;;;;;;10.67;100.00;98893.97;5037017;28;20472;-79
2022/03/10 01:15:27;;;;;;;;;;;;;;;11.03;100.00;98880.88;5035689;28;20014;-79
2022/03/10 01:17:58;;;;;;;;;;;;;;;10.70;100.00;98887.53;5035626;28;19925;-79
2022/03/10 01:20:25;;;;;;;;;;;;;;;10.89;100.00;98892.34;5035654;28;19925;-78
2022/03/10 01:22:52;;;;;;;;;;;;;;;10.70;100.00;98891.13;5035885;28;19933;-79
2022/03/10 01:25:19;;;;;;;;;;;;;;;10.82;100.00;98886.91;5036891;28;19975;-79
2022/03/10 01:28:05;;;;;;;;;;;;;;;10.88;100.00;98894.38;5037200;28;19932;-79
2022/03/10 01:30:51;;;;;;;;;;;;;;;11.04;100.00;98881.69;5036875;28;19932;-79
2022/03/10 01:33:37;;;;;;;;;;;;;;;10.86;100.00;98887.59;5035683;28;19932;-79
2022/03/10 01:36:22;;;;;;;;;;;;;;;10.72;100.00;98899.09;5037129;28;19932;-79
2022/03/10 01:39:08;;;;;;;;;;;;;;;10.45;100.00;98876.81;5036870;28;19974;-79
2022/03/10 01:41:53;;;;;;;;;;;;;;;10.71;100.00;98880.72;5035878;28;19931;-79
2022/03/10 01:44:40;;;;;;;;;;;;;;;11.11;100.00;98885.09;5036990;28;19936;-79
2022/03/10 01:47:25;;;;;;;;;;;;;;;11.06;100.00;98891.19;5021952;28;20065;-79
2022/03/10 01:50:13;;;;;;;;;;;;;;;11.03;100.00;98899.69;5035883;28;19932;-79
2022/03/10 01:53:00;;;;;;;;;;;;;;;11.05;100.00;98889.63;5036725;28;20486;-79
2022/03/10 01:55:46;;;;;;;;;;;;;;;11.30;100.00;98878.69;5036808;28;19948;-79
2022/03/10 01:58:32;;;;;;;;;;;;;;;11.30;100.00;98884.28;5035608;28;19932;-79
2022/03/10 02:01:18;;;;;;;;;;;;;;;10.68;100.00;98882.38;5036052;28;19932;-79
2022/03/10 02:04:04;;;;;;;;;;;;;;;10.89;100.00;98879.16;5036635;28;19932;-79
2022/03/10 02:06:51;;;;;;;;;;;;;;;10.92;100.00;98883.09;5036381;28;20031;-79
2022/03/10 02:12:41;;;;;;;;;;;;;;;10.99;100.00;98874.56;5036220;28;19978;-79
2022/03/10 02:18:33;;;;;;;;;;;;;;;10.84;100.00;98868.47;5076300;28;20074;-79
2022/03/10 02:21:18;;;;;;;;;;;;;;;11.05;100.00;98877.66;5060911;28;20010;-79
2022/03/10 02:24:04;;;;;;;;;;;;;;;11.03;100.00;98875.28;5061061;28;19948;-79
2022/03/10 02:26:50;;;;;;;;;;;;;;;10.85;100.00;98869.28;5076193;28;19935;-79
2022/03/10 02:29:37;;;;;;;;;;;;;;;10.52;100.00;98864.72;5076115;28;19930;-79
2022/03/10 02:32:22;;;;;;;;;;;;;;;10.99;100.00;98869.00;5060655;28;19931;-79
2022/03/10 02:35:11;;;;;;;;;;;;;;;11.03;100.00;98855.72;5060781;28;19947;-79
2022/03/10 02:37:56;;;;;;;;;;;;;;;10.79;100.00;98840.25;5074708;28;19970;-79
2022/03/10 02:40:42;;;;;;;;;;;;;;;10.95;100.00;98863.47;5075637;28;19946;-79
2022/03/10 02:43:28;;;;;;;;;;;;;;;10.62;100.00;98863.72;5075803;28;19931;-79
2022/03/10 02:46:13;;;;;;;;;;;;;;;10.89;100.00;98869.97;5075201;28;19932;-79
2022/03/10 02:49:00;;;;;;;;;;;;;;;11.23;100.00;98856.47;5075788;28;20524;-79
2022/03/10 02:51:45;;;;;;;;;;;;;;;11.29;100.00;98854.75;5060513;28;19932;-79
2022/03/10 02:54:31;;;;;;;;;;;;;;;11.19;100.00;98849.41;5075694;28;20370;-79
2022/03/10 02:57:17;;;;;;;;;;;;;;;11.17;100.00;98858.22;5075111;28;19970;-79
2022/03/10 03:00:04;;;;;;;;;;;;;;;10.73;100.00;98872.69;5075199;28;19931;-79
2022/03/10 03:02:49;;;;;;;;;;;;;;;11.25;100.00;98859.66;5059956;28;19985;-79
2022/03/10 03:05:35;;;;;;;;;;;;;;;11.34;100.00;98840.25;5075484;28;20017;-79
2022/03/10 03:08:20;;;;;;;;;;;;;;;11.40;100.00;98851.72;5046039;28;20354;-79
2022/03/10 03:11:06;;;;;;;;;;;;;;;11.58;100.00;98850.09;5060220;28;19931;-79
2022/03/10 03:13:52;;;;;;;;;;;;;;;11.92;100.00;98839.28;5045725;28;19969;-79
2022/03/10 03:16:39;;;;;;;;;;;;;;;11.64;100.00;98848.38;5074758;28;19935;-79
2022/03/10 03:19:25;;;;;;;;;;;;;;;11.76;100.00;98856.09;5060049;28;19931;-79
2022/03/10 03:22:11;;;;;;;;;;;;;;;11.95;100.00;98855.22;5059236;28;20042;-79
2022/03/10 03:24:56;;;;;;;;;;;;;;;11.29;100.00;98848.34;5059563;28;19931;-79
2022/03/10 03:27:43;;;;;;;;;;;;;;;11.07;100.00;98848.06;5031962;28;20029;-79
2022/03/10 03:30:28;;;;;;;;;;;;;;;10.98;100.00;98856.22;5045522;28;19969;-79
2022/03/10 03:33:14;;;;;;;;;;;;;;;11.28;100.00;98863.56;5059877;28;19931;-79
2022/03/10 03:36:00;;;;;;;;;;;;;;;11.36;100.00;98860.19;5059848;28;20521;-79
2022/03/10 03:38:46;;;;;;;;;;;;;;;11.32;100.00;98865.06;5059650;28;19931;-79
2022/03/10 03:41:31;;;;;;;;;;;;;;;11.18;100.00;98865.38;5074173;28;19931;-79
2022/03/10 03:44:17;;;;;;;;;;;;;;;11.06;100.00;98868.84;5074534;28;20405;-79
2022/03/10 03:47:03;;;;;;;;;;;;;;;10.62;100.00;98867.31;5059534;28;20069;-79
2022/03/10 03:49:49;;;;;;;;;;;;;;;10.89;100.00;98875.56;5074240;28;19931;-79
2022/03/10 03:52:34;;;;;;;;;;;;;;;11.09;100.00;98870.75;5074533;28;19931;-79
2022/03/10 03:55:23;;;;;;;;;;;;;;;10.93;100.00;98887.47;5059266;28;20413;-79
2022/03/10 03:58:09;;;;;;;;;;;;;;;11.07;100.00;98880.81;5074324;28;19931;-79
2022/03/10 04:00:55;;;;;;;;;;;;;;;10.69;100.00;98894.34;5045045;28;20321;-79
2022/03/10 04:03:42;;;;;;;;;;;;;;;11.17;100.00;98891.78;5074201;28;19951;-79
2022/03/10 04:06:09;;;;;;;;;;;;;;;11.23;100.00;98901.22;5074072;28;19932;-79
2022/03/10 04:08:36;;;;;;;;;;;;;;;10.72;100.00;98896.28;5056119;28;19986;-79
2022/03/10 04:11:04;;;;;;;;;;;;;;;10.18;100.00;98892.06;5073733;28;19932;-79
2022/03/10 04:13:37;;;;;;;;;;;;;;;10.40;100.00;98894.09;5073813;28;19925;-79
2022/03/10 04:16:05;;;;;;;;;;;;;;;10.06;100.00;98889.84;5056238;28;19924;-83
2022/03/10 04:18:35;;;;;;;;;;;;;;;10.31;100.00;98885.47;5039933;28;19924;-80
2022/03/10 04:21:12;;;;;;;;;;;;;;;9.74;100.00;98890.38;5042366;28;19929;-79
2022/03/10 04:23:41;;;;;;;;;;;;;;;10.43;100.00;98903.59;5056157;28;20391;-80
2022/03/10 04:26:08;;;;;;;;;;;;;;;10.02;100.00;98889.94;5073705;28;19924;-79
2022/03/10 04:28:35;;;;;;;;;;;;;;;10.60;100.00;98902.50;5039065;28;20495;-79
2022/03/10 04:31:03;;;;;;;;;;;;;;;10.48;100.00;98892.72;5039355;28;19932;-79
2022/03/10 04:33:30;;;;;;;;;;;;;;;10.39;100.00;98889.69;5059745;28;20350;-79
2022/03/10 04:35:58;;;;;;;;;;;;;;;10.56;100.00;98885.00;5059793;28;20280;-79
2022/03/10 04:38:25;;;;;;;;;;;;;;;10.99;100.00;98882.97;5060000;28;19932;-79
2022/03/10 04:40:52;;;;;;;;;;;;;;;10.85;100.00;98886.03;5059440;28;19951;-79
2022/03/10 04:43:19;;;;;;;;;;;;;;;10.29;100.00;98890.69;5077728;28;20011;-79
2022/03/10 04:45:46;;;;;;;;;;;;;;;10.41;100.00;98884.47;5077690;28;20427;-79
2022/03/10 04:48:13;;;;;;;;;;;;;;;10.90;100.00;98896.72;5059685;28;19924;-79
2022/03/10 04:50:40;;;;;;;;;;;;;;;10.79;100.00;98893.34;5077349;28;20287;-79
2022/03/10 04:53:08;;;;;;;;;;;;;;;10.88;100.00;98887.97;5059705;28;19947;-79
2022/03/10 04:55:36;;;;;;;;;;;;;;;11.21;100.00;98875.69;5077110;28;20015;-79
2022/03/10 04:58:04;;;;;;;;;;;;;;;10.87;100.00;98878.03;5059728;28;20371;-79
2022/03/10 05:00:31;;;;;;;;;;;;;;;10.92;100.00;98880.28;5077226;28;19928;-79
2022/03/10 05:02:58;;;;;;;;;;;;;;;10.80;100.00;98867.75;5077133;28;19931;-78
2022/03/10 05:05:25;;;;;;;;;;;;;;;10.89;100.00;98869.97;5059464;28;19944;-79
2022/03/10 05:07:52;;;;;;;;;;;;;;;10.88;100.00;98874.78;5076981;28;20001;-79
2022/03/10 05:10:19;;;;;;;;;;;;;;;10.63;100.00;98870.91;5076787;28;19924;-79
2022/03/10 05:12:50;;;;;;;;;;;;;;;10.95;100.00;98871.84;5059181;28;19947;-79
2022/03/10 05:15:19;;;;;;;;;;;;;;;11.07;100.00;98853.66;5076926;28;19968;-79
2022/03/10 05:17:46;;;;;;;;;;;;;;;10.99;100.00;98866.19;5058984;28;19970;-78
2022/03/10 05:20:14;;;;;;;;;;;;;;;10.95;100.00;98848.69;5059225;28;19925;-79
2022/03/10 05:22:46;;;;;;;;;;;;;;;11.17;100.00;98852.63;5076747;28;19928;-79
2022/03/10 05:25:14;;;;;;;;;;;;;;;11.28;100.00;98847.59;5076694;28;19924;-79
2022/03/10 05:27:42;;;;;;;;;;;;;;;11.05;100.00;98855.28;5076673;28;19928;-79
2022/03/10 05:30:09;;;;;;;;;;;;;;;11.14;100.00;98850.69;5058947;28;20057;-79
2022/03/10 05:32:38;;;;;;;;;;;;;;;11.06;100.00;98863.25;5058715;28;19928;-79
2022/03/10 05:35:06;;;;;;;;;;;;;;;11.00;100.00;98850.97;5076670;28;19925;-79
2022/03/10 05:37:35;;;;;;;;;;;;;;;10.79;100.00;98857.81;5058667;28;19924;-79
2022/03/10 05:40:04;;;;;;;;;;;;;;;10.61;100.00;98856.56;5041942;28;19932;-79
2022/03/10 05:42:32;;;;;;;;;;;;;;;10.94;100.00;98844.31;5041893;28;19933;-79
2022/03/10 05:44:59;;;;;;;;;;;;;;;10.63;100.00;98845.78;5058095;28;19952;-79
2022/03/10 05:47:26;;;;;;;;;;;;;;;10.39;100.00;98852.63;5042047;28;19932;-79
2022/03/10 05:49:53;;;;;;;;;;;;;;;10.51;100.00;98854.78;5058743;28;19970;-79
2022/03/10 05:52:21;;;;;;;;;;;;;;;10.56;100.00;98848.69;5058288;28;20368;-79
2022/03/10 05:54:50;;;;;;;;;;;;;;;11.02;100.00;98848.56;5058270;28;19955;-79
2022/03/10 05:57:17;;;;;;;;;;;;;;;11.09;100.00;98840.00;5041735;28;19931;-79
2022/03/10 05:59:45;;;;;;;;;;;;;;;11.15;100.00;98843.88;5076282;28;19939;-79
2022/03/10 06:02:15;;;;;;;;;;;;;;;11.34;100.00;98840.25;5075991;28;19931;-79
2022/03/10 06:04:42;;;;;;;;;;;;;;;11.32;100.00;98842.69;5076064;28;19936;-79
2022/03/10 06:07:09;;;;;;;;;;;;;;;11.01;100.00;98833.00;5058175;28;19931;-79
2022/03/10 06:09:36;;;;;;;;;;;;;;;10.90;100.00;98832.44;5058338;28;19925;-79
2022/03/10 06:12:04;;;;;;;;;;;;;;;11.03;100.00;98827.75;5041157;28;19932;-79
2022/03/10 06:14:31;;;;;;;;;;;;;;;10.92;100.00;98824.38;5075375;28;20019;-79
2022/03/10 06:16:58;;;;;;;;;;;;;;;11.12;100.00;98833.53;5057652;28;19947;-79
2022/03/10 06:19:26;;;;;;;;;;;;;;;10.98;100.00;98831.03;5057767;28;19929;-79
2022/03/10 06:21:53;;;;;;;;;;;;;;;11.13;100.00;98837.94;5074827;28;19924;-79
2022/03/10 06:24:20;;;;;;;;;;;;;;;11.16;100.00;98833.47;5075220;28;20268;-79
2022/03/10 06:26:48;;;;;;;;;;;;;;;10.93;100.00;98837.94;5075759;28;20338;-79
2022/03/10 06:29:15;;;;;;;;;;;;;;;11.27;100.00;98846.00;5041127;28;20264;-79
2022/03/10 06:31:43;;;;;;;;;;;;;;;11.05;100.00;98828.13;5075664;28;19930;-79
2022/03/10 06:34:10;;;;;;;;;;;;;;;10.82;100.00;98825.41;5058030;28;19963;-79
2022/03/10 06:36:37;;;;;;;;;;;;;;;11.26;100.00;98827.66;5057985;28;20088;-79
2022/03/10 06:39:06;;;;;;;;;;;;;;;11.02;100.00;98833.78;5075104;28;19925;-79
2022/03/10 06:41:33;;;;;;;;;;;;;;;11.31;100.00;98829.16;5057773;28;19947;-82
2022/03/10 06:44:00;;;;;;;;;;;;;;;11.20;100.00;98823.00;5057762;28;20268;-80
2022/03/10 06:46:28;;;;;;;;;;;;;;;10.82;100.00;98826.22;5040900;28;20015;-80
2022/03/10 06:48:55;;;;;;;;;;;;;;;10.72;100.00;98832.03;5075761;28;19950;-80
2022/03/10 06:51:23;;;;;;;;;;;;;;;10.48;100.00;98822.13;5036740;28;20375;-81
2022/03/10 06:53:50;;;;;;;;;;;;;;;10.52;100.00;98829.22;5054801;28;20303;-83
2022/03/10 06:56:20;;;;;;;;;;;;;;;10.99;100.00;98838.22;5072928;28;19924;-82
2022/03/10 06:58:47;;;;;;;;;;;;;;;11.04;100.00;98834.94;5057205;28;20309;-80
2022/03/10 07:01:14;;;;;;;;;;;;;;;11.04;100.00;98843.34;5057384;28;19925;-79
2022/03/10 07:03:41;;;;;;;;;;;;;;;11.25;100.00;98831.69;5091293;28;20268;-80
2022/03/10 07:06:09;;;;;;;;;;;;;;;11.30;100.00;98833.19;5091097;28;20453;-79
2022/03/10 07:08:36;;;;;;;;;;;;;;;10.80;100.00;98816.66;5057260;28;20014;-80
2022/03/10 07:11:04;;;;;;;;;;;;;;;11.01;100.00;98832.22;5073292;28;20349;-81
2022/03/10 07:13:34;;;;;;;;;;;;;;;10.44;100.00;98832.56;5073332;28;19959;-79
2022/03/10 07:16:01;;;;;;;;;;;;;;;10.71;100.00;98841.59;5073767;28;19931;-80
2022/03/10 07:18:28;;;;;;;;;;;;;;;10.63;100.00;98846.53;5073334;28;20737;-81
2022/03/10 07:20:55;;;;;;;;;;;;;;;10.82;100.00;98853.34;5090109;28;19924;-80
2022/03/10 07:23:22;;;;;;;;;;;;;;;10.97;100.00;98843.47;5092198;28;19924;-80
2022/03/10 07:25:50;;;;;;;;;;;;;;;10.61;100.00;98856.56;5073118;28;20360;-80
2022/03/10 07:28:17;;;;;;;;;;;;;;;10.81;100.00;98843.41;5091081;28;19924;-80
2022/03/10 07:30:44;;;;;;;;;;;;;;;11.14;100.00;98856.28;5092104;28;19963;-84
2022/03/10 07:33:12;;;;;;;;;;;;;;;11.23;100.00;98839.69;5057211;28;19924;-84
2022/03/10 07:35:39;;;;;;;;;;;;;;;11.68;100.00;98846.28;5091776;28;19924;-83
2022/03/10 07:38:06;;;;;;;;;;;;;;;11.50;100.00;98831.88;5084931;28;19928;-83
2022/03/10 07:40:33;;;;;;;;;;;;;;;11.95;100.00;98823.63;5054739;28;19931;-84
2022/03/10 07:43:02;;;;;;;;;;;;;;;12.36;100.00;98832.13;5023999;28;20455;-84
2022/03/10 07:45:29;;;;;;;;;;;;;;;12.56;100.00;98828.00;5056866;28;19978;-84
2022/03/10 07:47:56;;;;;;;;;;;;;;;12.91;100.00;98833.81;5056888;28;20288;-83
2022/03/10 07:50:23;;;;;;;;;;;;;;;12.54;100.00;98833.25;5056534;28;19956;-84
2022/03/10 07:52:51;;;;;;;;;;;;;;;12.68;100.00;98834.88;5057319;28;20368;-83
2022/03/10 07:55:19;;;;;;;;;;;;;;;12.21;100.00;98834.53;5074669;28;19952;-83
2022/03/10 07:57:49;;;;;;;;;;;;;;;11.98;100.00;98843.13;5071187;28;21229;-81
2022/03/10 08:00:32;;;;;;;;;;;;;;;11.11;100.00;98845.16;5058893;28;19930;-81
2022/03/10 08:02:59;;;;;;;;;;;;;;;11.48;100.00;98841.94;5034262;28;20287;-81
2022/03/10 08:05:31;;;;;;;;;;;;;;;11.72;100.00;98851.78;5062002;28;19975;-83
2022/03/10 08:08:31;;;;;;;;;;;;;;;12.00;100.00;98854.69;5053421;28;19928;-84
2022/03/10 08:12:34;;;;;;;;;;;;;;;12.19;100.00;98851.00;5040143;28;19959;-82
2022/03/10 08:15:05;;;;;;;;;;;;;;;11.81;100.00;98857.56;5013169;28;19925;-82
2022/03/10 08:17:36;;;;;;;;;;;;;;;10.64;100.00;98864.09;5012515;28;21187;-82
2022/03/10 08:20:12;;;;;;;;;;;;;;;11.19;100.00;98850.19;5029097;28;20017;-82
2022/03/10 08:22:44;;;;;;;;;;;;;;;10.92;100.00;98846.75;4997232;28;20403;-83
2022/03/10 08:25:12;;;;;;;;;;;;;;;10.87;100.00;98859.22;5031557;28;19948;-82
2022/03/10 08:27:45;;;;;;;;;;;;;;;10.98;100.00;98854.22;5032121;28;20412;-81
2022/03/10 08:30:13;;;;;;;;;;;;;;;11.09;100.00;98859.56;4999022;28;20436;-80
2022/03/10 08:32:45;;;;;;;;;;;;;;;11.39;100.00;98876.09;5014361;28;19925;-80
2022/03/10 08:35:15;;;;;;;;;;;;;;;11.38;100.00;98856.94;5031804;28;19932;-80
2022/03/10 08:37:43;;;;;;;;;;;;;;;11.08;100.00;98863.59;5015019;28;19929;-79
2022/03/10 08:40:15;;;;;;;;;;;;;;;10.53;100.00;98869.91;4998511;28;19925;-79
2022/03/10 08:42:43;;;;;;;;;;;;;;;10.75;100.00;98864.69;5031648;28;19935;-83
2022/03/10 08:45:13;;;;;;;;;;;;;;;10.48;100.00;98852.84;4999248;28;19929;-81
2022/03/10 08:47:41;;;;;;;;;;;;;;;10.96;100.00;98875.44;5033553;28;20384;-80
2022/03/10 08:50:10;;;;;;;;;;;;;;;10.89;100.00;98861.59;5037774;28;20419;-79
2022/03/10 08:52:38;;;;;;;;;;;;;;;11.16;100.00;98845.47;5032051;28;19951;-80
2022/03/10 08:55:06;;;;;;;;;;;;;;;11.34;100.00;98859.03;5066963;28;19925;-79
2022/03/10 08:57:33;;;;;;;;;;;;;;;11.19;100.00;98849.41;5054563;28;19928;-79
2022/03/10 09:00:00;;;;;;;;;;;;;;;11.38;100.00;98842.97;5030176;28;19925;-79
2022/03/10 09:02:28;;;;;;;;;;;;;;;11.16;100.00;98839.06;5019877;28;19932;-79
2022/03/10 09:04:56;;;;;;;;;;;;;;;10.91;100.00;98842.38;5038353;28;19935;-79
2022/03/10 09:07:24;;;;;;;;;;;;;;;11.03;100.00;98838.94;5055456;28;20377;-78
2022/03/10 09:09:51;;;;;;;;;;;;;;;11.33;100.00;98844.25;5070168;28;19924;-78
2022/03/10 09:12:19;;;;;;;;;;;;;;;11.34;100.00;98840.25;5069593;28;19924;-79
2022/03/10 09:14:46;;;;;;;;;;;;;;;11.03;100.00;98827.75;5063336;28;19924;-79
2022/03/10 09:17:16;;;;;;;;;;;;;;;11.04;100.00;98825.75;5068859;28;20359;-79
2022/03/10 09:19:45;;;;;;;;;;;;;;;11.29;100.00;98835.16;5055788;28;19976;-79
2022/03/10 09:22:12;;;;;;;;;;;;;;;11.50;100.00;98831.88;5037613;28;19924;-79
2022/03/10 09:24:39;;;;;;;;;;;;;;;11.09;100.00;98828.06;5039270;28;19925;-77
2022/03/10 09:27:09;;;;;;;;;;;;;;;11.68;100.00;98820.28;5056955;28;19931;-78
2022/03/10 09:29:36;;;;;;;;;;;;;;;11.65;100.00;98829.56;5056713;28;19924;-81
2022/03/10 09:32:04;;;;;;;;;;;;;;;11.54;100.00;98815.03;5029955;28;19932;-80
2022/03/10 09:34:31;;;;;;;;;;;;;;;11.52;100.00;98818.25;5073893;28;20340;-81
2022/03/10 09:36:58;;;;;;;;;;;;;;;11.08;100.00;98815.28;5075853;28;20015;-81
2022/03/10 09:39:26;;;;;;;;;;;;;;;11.56;100.00;98852.53;5059099;28;20011;-80
2022/03/10 09:41:56;;;;;;;;;;;;;;;11.90;100.00;98813.75;5027385;28;19965;-80
2022/03/10 09:44:26;;;;;;;;;;;;;;;11.90;100.00;98816.56;5058644;28;19935;-80
2022/03/10 09:46:54;;;;;;;;;;;;;;;12.00;100.00;98820.28;5076709;28;19928;-80
2022/03/10 09:49:21;;;;;;;;;;;;;;;11.34;100.00;98815.09;5056340;28;20011;-80
2022/03/10 09:51:49;;;;;;;;;;;;;;;11.62;100.00;98800.44;5056493;28;19925;-80
2022/03/10 09:54:16;;;;;;;;;;;;;;;11.34;100.00;98831.88;5038618;28;19925;-80
2022/03/10 09:56:44;;;;;;;;;;;;;;;11.11;100.00;98794.84;5056311;28;19966;-80
2022/03/10 09:59:12;;;;;;;;;;;;;;;11.67;100.00;98799.94;5056249;28;20323;-80
2022/03/10 10:01:39;;;;;;;;;;;;;;;12.24;100.00;98825.25;5056418;28;20008;-80
2022/03/10 10:04:07;;;;;;;;;;;;;;;11.81;100.00;98780.00;5056311;28;19924;-80
2022/03/10 10:06:52;;;;;;;;;;;;;;;11.74;100.00;98812.97;5056115;28;19925;-80
2022/03/10 10:09:20;;;;;;;;;;;;;;;11.89;100.00;98800.19;5056320;28;19960;-80
2022/03/10 10:11:47;;;;;;;;;;;;;;;11.70;100.00;98804.66;5038164;28;19925;-79
2022/03/10 10:14:40;;;;;;;;;;;;;;;11.47;100.00;98799.19;5075486;28;19960;-80
2022/03/10 10:17:10;;;;;;;;;;;;;;;11.35;100.00;98766.31;5075938;28;19968;-80
2022/03/10 10:19:40;;;;;;;;;;;;;;;11.60;100.00;98769.28;5041930;28;19989;-80
2022/03/10 10:22:25;;;;;;;;;;;;;;;11.49;100.00;98791.16;5075975;28;19928;-80
2022/03/10 10:24:57;;;;;;;;;;;;;;;11.90;100.00;98799.75;5041507;28;19925;-80
2022/03/10 10:27:26;;;;;;;;;;;;;;;11.82;100.00;98787.16;5057904;28;20383;-80
2022/03/10 10:29:58;;;;;;;;;;;;;;;11.95;100.00;98790.81;5057718;28;20047;-80
2022/03/10 10:32:35;;;;;;;;;;;;;;;12.05;100.00;98800.16;5075712;28;19963;-80
2022/03/10 10:35:03;;;;;;;;;;;;;;;11.92;100.00;98819.69;5058188;28;19977;-80
2022/03/10 10:37:30;;;;;;;;;;;;;;;11.75;100.00;98776.16;5058076;28;19925;-80
2022/03/10 10:40:00;;;;;;;;;;;;;;;11.95;100.00;98798.44;5057782;28;19930;-80
2022/03/10 10:42:32;;;;;;;;;;;;;;;12.31;100.00;98805.44;5057643;28;20360;-80
2022/03/10 10:45:00;;;;;;;;;;;;;;;11.88;100.00;98765.00;5075393;28;19974;-80
2022/03/10 10:47:28;;;;;;;;;;;;;;;12.17;100.00;98819.06;5057853;28;19925;-80
2022/03/10 10:49:56;;;;;;;;;;;;;;;12.34;100.00;98804.56;5074261;28;20018;-80
2022/03/10 10:52:24;;;;;;;;;;;;;;;12.04;100.00;98799.38;5066147;28;20023;-79
2022/03/10 10:55:08;;;;;;;;;;;;;;;11.79;100.00;98793.63;5055212;28;19925;-80
2022/03/10 10:57:36;;;;;;;;;;;;;;;12.01;100.00;98783.44;5067486;28;19955;-80
2022/03/10 11:00:05;;;;;;;;;;;;;;;11.87;100.00;98800.63;5057262;28;19997;-80
2022/03/10 11:02:34;;;;;;;;;;;;;;;11.72;100.00;98799.38;5040894;28;19930;-80
2022/03/10 11:05:03;;;;;;;;;;;;;;;12.01;100.00;98793.88;5068972;28;19929;-78
2022/03/10 11:07:32;;;;;;;;;;;;;;;11.59;100.00;98772.50;5046306;28;19928;-82
2022/03/10 11:09:59;;;;;;;;;;;;;;;11.69;100.00;98797.47;5039643;28;19954;-82
2022/03/10 11:12:26;;;;;;;;;;;;;;;11.75;100.00;98795.75;5057106;28;20019;-82
2022/03/10 11:14:53;;;;;;;;;;;;;;;11.89;100.00;98820.56;5056854;28;19931;-81
2022/03/10 11:17:20;;;;;;;;;;;;;;;11.89;100.00;98803.00;5054718;28;19924;-81
2022/03/10 11:19:54;;;;;;;;;;;;;;;12.01;100.00;98788.28;5071821;28;19931;-81
2022/03/10 11:22:21;;;;;;;;;;;;;;;12.06;100.00;98829.75;5074775;28;19932;-81
2022/03/10 11:24:57;;;;;;;;;;;;;;;12.13;100.00;98815.56;5074337;28;20362;-79
2022/03/10 11:27:28;;;;;;;;;;;;;;;11.89;100.00;98792.56;5074712;28;19925;-81
2022/03/10 11:29:57;;;;;;;;;;;;;;;12.51;100.00;98777.31;5056909;28;19924;-81
2022/03/10 11:32:26;;;;;;;;;;;;;;;12.96;100.00;98802.44;5055877;28;19947;-81
2022/03/10 11:34:55;;;;;;;;;;;;;;;12.78;100.00;98781.28;5055607;28;20389;-81
2022/03/10 11:37:41;;;;;;;;;;;;;;;13.03;100.00;98796.63;5073446;28;20397;-82
2022/03/10 11:40:08;;;;;;;;;;;;;;;13.24;100.00;98790.41;5055543;28;19924;-82
2022/03/10 11:42:36;;;;;;;;;;;;;;;13.12;100.00;98771.50;5054842;28;20023;-82
2022/03/10 11:45:07;;;;;;;;;;;;;;;13.34;100.00;98761.22;5055828;28;19928;-82
2022/03/10 11:47:35;;;;;;;;;;;;;;;12.83;100.00;98751.16;5055820;28;19925;-82
2022/03/10 11:50:24;;;;;;;;;;;;;;;13.20;100.00;98778.47;5055380;28;19963;-82
2022/03/10 11:52:55;;;;;;;;;;;;;;;12.90;100.00;98765.75;5055719;28;19924;-82
2022/03/10 11:55:23;;;;;;;;;;;;;;;13.43;100.00;98764.13;5038867;28;19924;-82
2022/03/10 11:57:53;;;;;;;;;;;;;;;13.27;100.00;98753.03;5055355;28;19924;-82
2022/03/10 12:00:44;;;;;;;;;;;;;;;13.55;100.00;98760.53;5022617;28;19924;-82
2022/03/10 12:03:49;;;;;;;;;;;;;;;13.66;100.00;98775.78;5039174;28;19934;-82
2022/03/10 12:06:16;;;;;;;;;;;;;;;14.08;100.00;98770.75;4978385;28;19980;-82
2022/03/10 12:09:00;;;;;;;;;;;;;;;14.36;100.00;98756.50;4994796;28;19925;-82
2022/03/10 12:11:47;;;;;;;;;;;;;;;14.01;100.00;98737.31;5010914;28;19940;-82
2022/03/10 12:14:25;;;;;;;;;;;;;;;14.23;100.00;98754.97;5011132;28;19956;-81
2022/03/10 12:16:52;;;;;;;;;;;;;;;14.08;100.00;98748.28;4994456;28;19925;-81
2022/03/10 12:19:39;;;;;;;;;;;;;;;14.16;100.00;98729.94;5011058;28;19925;-81
2022/03/10 12:22:09;;;;;;;;;;;;;;;14.36;100.00;98716.38;4993135;28;19941;-81
2022/03/10 12:24:36;;;;;;;;;;;;;;;14.48;100.00;98754.13;5010879;28;19926;-85
2022/03/10 12:27:05;;;;;;;;;;;;;;;14.73;100.00;98721.03;5011005;28;19930;-82
2022/03/10 12:29:34;;;;;;;;;;;;;;;14.82;100.00;98723.09;5008952;28;19981;-82
2022/03/10 12:32:03;;;;;;;;;;;;;;;15.03;100.00;98734.31;4992492;28;20013;-82
2022/03/10 12:34:32;;;;;;;;;;;;;;;14.31;100.00;98711.38;4992442;28;19933;-82
2022/03/10 12:37:00;;;;;;;;;;;;;;;14.25;100.00;98719.56;4976618;28;19976;-82
2022/03/10 12:39:27;;;;;;;;;;;;;;;14.53;100.00;98723.38;4985511;28;19925;-82
2022/03/10 12:42:01;;;;;;;;;;;;;;;14.32;100.00;98707.31;5019799;28;19994;-82
2022/03/10 12:44:29;;;;;;;;;;;;;;;14.44;100.00;98698.81;5019762;28;19983;-82
2022/03/10 12:46:58;;;;;;;;;;;;;;;14.91;100.00;98709.06;5036350;28;19925;-82
2022/03/10 12:49:40;;;;;;;;;;;;;;;14.90;100.00;98699.88;5054139;28;19925;-82
2022/03/10 12:52:15;;;;;;;;;;;;;;;14.79;100.00;98713.56;5036146;28;20484;-82
2022/03/10 12:54:44;;;;;;;;;;;;;;;14.97;100.00;98707.22;5057752;28;19924;-82
2022/03/10 12:57:11;;;;;;;;;;;;;;;14.54;100.00;98710.88;5039932;28;19924;-81
2022/03/10 12:59:40;;;;;;;;;;;;;;;14.82;100.00;98700.59;5039857;28;20275;-82
2022/03/10 13:02:17;;;;;;;;;;;;;;;14.93;100.00;98715.84;5057550;28;19924;-81
2022/03/10 13:04:48;;;;;;;;;;;;;;;14.68;100.00;98692.72;5057426;28;20443;-81
2022/03/10 13:07:17;;;;;;;;;;;;;;;14.53;100.00;98653.09;5037991;28;20348;-82
2022/03/10 13:09:52;;;;;;;;;;;;;;;14.74;100.00;98716.94;5057187;28;19929;-81